Time;durP1;ratioP1;P1;durP2;ratioP2;P2;SDS_P1;SDS_P2;PMS_P1;PMS_P2;Temp;Humidity;BMP_temperature;BMP_pressure;BME280_temperature;BME280_humidity;BME280_pressure;Samples;Min_cycle;Max_cycle;Signal;HPM_P1;HPM_P2
2024/01/27 00:00:57;;;;;;;;;;;;;;;;;;4967982;28;20036;-61
2024/01/27 00:03:22;;;;;;;;;;;;;;;;;;4967642;28;20391;-61
2024/01/27 00:05:47;;;;;;;;;;;;;;;;;;4967616;28;20315;-61
2024/01/27 00:08:13;;;;;;;;;;;;;;;;;;4947816;28;19985;-60
2024/01/27 00:10:38;;;;;;;;;;;;;;;;;;4941354;28;20048;-61
2024/01/27 00:13:03;;;;;;;;;;;;;;;;;;4948266;29;19914;-60
2024/01/27 00:15:28;;;;;;;;;;;;;;;;;;4948408;28;19922;-60
2024/01/27 00:17:54;;;;;;;;;;;;;;;;;;4948375;28;20495;-60
2024/01/27 00:20:19;;;;;;;;;;;;;;;;;;4948369;28;19946;-60
2024/01/27 00:22:44;;;;;;;;;;;;;;;;;;4948352;28;19957;-60
2024/01/27 00:25:09;;;;;;;;;;;;;;;;;;4933231;29;19918;-61
2024/01/27 00:27:35;;;;;;;;;;;;;;;;;;4928787;29;19922;-60
2024/01/27 00:30:01;;;;;;;;;;;;;;;;;;4928757;29;20735;-60
2024/01/27 00:32:26;;;;;;;;;;;;;;;;;;4928426;29;19930;-60
2024/01/27 00:34:51;;;;;;;;;;;;;;;;;;4929034;29;19922;-61
2024/01/27 00:37:17;;;;;;;;;;;;;;;;;;4928452;29;19911;-60
2024/01/27 00:39:42;;;;;;;;;;;;;;;;;;4933110;29;19949;-60
2024/01/27 00:42:08;;;;;;;;;;;;;;;;;;4948003;28;20681;-60
2024/01/27 00:44:33;;;;;;;;;;;;;;;;;;4940755;28;20479;-62
2024/01/27 00:46:58;;;;;;;;;;;;;;;;;;4928892;29;19974;-60
2024/01/27 00:49:23;;;;;;;;;;;;;;;;;;4928352;29;20503;-60
2024/01/27 00:51:49;;;;;;;;;;;;;;;;;;4928739;29;19907;-61
2024/01/27 00:54:14;;;;;;;;;;;;;;;;;;4927206;29;20448;-61
2024/01/27 00:56:39;;;;;;;;;;;;;;;;;;4928307;29;19919;-61
2024/01/27 00:59:05;;;;;;;;;;;;;;;;;;4935192;28;19988;-60
2024/01/27 01:01:30;;;;;;;;;;;;;;;;;;4966606;28;19921;-61
2024/01/27 01:03:55;;;;;;;;;;;;;;;;;;4967253;28;20310;-61
2024/01/27 01:06:21;;;;;;;;;;;;;;;;;;4955725;28;19926;-60
2024/01/27 01:08:46;;;;;;;;;;;;;;;;;;4941709;28;19934;-60
2024/01/27 01:11:11;;;;;;;;;;;;;;;;;;4931765;29;19964;-60
2024/01/27 01:13:36;;;;;;;;;;;;;;;;;;4945863;28;19921;-60
2024/01/27 01:16:03;;;;;;;;;;;;;;;;;;4932045;29;19933;-60
2024/01/27 01:18:28;;;;;;;;;;;;;;;;;;4927390;29;20389;-61
2024/01/27 01:20:54;;;;;;;;;;;;;;;;;;4910498;29;19930;-61
2024/01/27 01:23:19;;;;;;;;;;;;;;;;;;4927835;28;19993;-61
2024/01/27 01:25:44;;;;;;;;;;;;;;;;;;4933183;29;19993;-60
2024/01/27 01:28:09;;;;;;;;;;;;;;;;;;4928395;29;19915;-61
2024/01/27 01:30:35;;;;;;;;;;;;;;;;;;4926716;29;20001;-60
2024/01/27 01:33:00;;;;;;;;;;;;;;;;;;4927012;29;19926;-61
2024/01/27 01:35:26;;;;;;;;;;;;;;;;;;4927613;29;20352;-60
2024/01/27 01:37:51;;;;;;;;;;;;;;;;;;4927137;29;19952;-60
2024/01/27 01:40:16;;;;;;;;;;;;;;;;;;4938453;28;19914;-61
2024/01/27 01:42:41;;;;;;;;;;;;;;;;;;4947502;29;20446;-60
2024/01/27 01:45:09;;;;;;;;;;;;;;;;;;4946523;28;20020;-61
2024/01/27 01:47:34;;;;;;;;;;;;;;;;;;4946920;28;19918;-61
2024/01/27 01:50:00;;;;;;;;;;;;;;;;;;4935785;28;20064;-61
2024/01/27 01:52:25;;;;;;;;;;;;;;;;;;4927759;29;20007;-61
2024/01/27 01:54:50;;;;;;;;;;;;;;;;;;4926308;29;20413;-60
2024/01/27 01:57:16;;;;;;;;;;;;;;;;;;4926805;29;19952;-61
2024/01/27 01:59:41;;;;;;;;;;;;;;;;;;4944400;28;20504;-61
2024/01/27 02:02:08;;;;;;;;;;;;;;;;;;4943412;28;19915;-61
2024/01/27 02:04:40;;;;;;;;;;;;;;;;;;4945179;28;19997;-61
2024/01/27 02:07:05;;;;;;;;;;;;;;;;;;4946759;29;20406;-61
2024/01/27 02:09:31;;;;;;;;;;;;;;;;;;4944582;28;19919;-61
2024/01/27 02:11:56;;;;;;;;;;;;;;;;;;4937152;29;20379;-61
2024/01/27 02:14:25;;;;;;;;;;;;;;;;;;4945552;28;19989;-60
2024/01/27 02:16:50;;;;;;;;;;;;;;;;;;4946224;28;19922;-60
2024/01/27 02:19:15;;;;;;;;;;;;;;;;;;4944581;28;20006;-60
2024/01/27 02:21:40;;;;;;;;;;;;;;;;;;4946075;29;20308;-61
2024/01/27 02:24:07;;;;;;;;;;;;;;;;;;4937756;28;20026;-60
2024/01/27 02:26:32;;;;;;;;;;;;;;;;;;4926236;29;20320;-60
2024/01/27 02:28:57;;;;;;;;;;;;;;;;;;4926862;29;20509;-61
2024/01/27 02:31:22;;;;;;;;;;;;;;;;;;4926105;29;20289;-61
2024/01/27 02:33:48;;;;;;;;;;;;;;;;;;4927103;29;19954;-61
2024/01/27 02:36:13;;;;;;;;;;;;;;;;;;4926041;29;19915;-61
2024/01/27 02:38:39;;;;;;;;;;;;;;;;;;4926335;29;19922;-61
2024/01/27 02:41:04;;;;;;;;;;;;;;;;;;4928530;28;19926;-60
2024/01/27 02:43:30;;;;;;;;;;;;;;;;;;4938003;28;19977;-61
2024/01/27 02:45:55;;;;;;;;;;;;;;;;;;4945312;29;20366;-61
2024/01/27 02:48:20;;;;;;;;;;;;;;;;;;4945608;28;19922;-61
2024/01/27 02:50:45;;;;;;;;;;;;;;;;;;4945546;28;19922;-61
2024/01/27 02:53:11;;;;;;;;;;;;;;;;;;4943684;28;20391;-61
2024/01/27 02:55:36;;;;;;;;;;;;;;;;;;4938582;28;20033;-61
2024/01/27 02:58:01;;;;;;;;;;;;;;;;;;4945540;29;20005;-60
2024/01/27 03:00:26;;;;;;;;;;;;;;;;;;4959650;28;20023;-60
2024/01/27 03:02:52;;;;;;;;;;;;;;;;;;4957089;28;19918;-60
2024/01/27 03:05:17;;;;;;;;;;;;;;;;;;4928851;29;19923;-60
2024/01/27 03:07:42;;;;;;;;;;;;;;;;;;4940991;28;20458;-60
2024/01/27 03:10:07;;;;;;;;;;;;;;;;;;4928671;28;19940;-60
2024/01/27 03:12:33;;;;;;;;;;;;;;;;;;4928398;29;19922;-60
2024/01/27 03:14:58;;;;;;;;;;;;;;;;;;4925816;29;19926;-60
2024/01/27 03:17:23;;;;;;;;;;;;;;;;;;4926134;29;19953;-60
2024/01/27 03:19:48;;;;;;;;;;;;;;;;;;4925982;29;19946;-60
2024/01/27 03:22:14;;;;;;;;;;;;;;;;;;4925948;29;19914;-60
2024/01/27 03:24:39;;;;;;;;;;;;;;;;;;4925800;29;19997;-60
2024/01/27 03:27:04;;;;;;;;;;;;;;;;;;4926349;29;20350;-61
2024/01/27 03:29:29;;;;;;;;;;;;;;;;;;4925214;29;20032;-60
2024/01/27 03:31:55;;;;;;;;;;;;;;;;;;4925134;29;19915;-61
2024/01/27 03:34:24;;;;;;;;;;;;;;;;;;4926233;29;20533;-60
2024/01/27 03:36:50;;;;;;;;;;;;;;;;;;4927155;29;19918;-60
2024/01/27 03:39:15;;;;;;;;;;;;;;;;;;4925799;28;19918;-61
2024/01/27 03:41:40;;;;;;;;;;;;;;;;;;4925734;29;20288;-60
2024/01/27 03:44:05;;;;;;;;;;;;;;;;;;4926111;29;19929;-61
2024/01/27 03:46:31;;;;;;;;;;;;;;;;;;4925637;29;19915;-60
2024/01/27 03:48:56;;;;;;;;;;;;;;;;;;4926790;29;19918;-60
2024/01/27 03:51:22;;;;;;;;;;;;;;;;;;4925660;29;19915;-60
2024/01/27 03:53:47;;;;;;;;;;;;;;;;;;4926495;28;20050;-60
2024/01/27 03:56:13;;;;;;;;;;;;;;;;;;4943688;28;19923;-60
2024/01/27 03:58:38;;;;;;;;;;;;;;;;;;4947645;28;20020;-60
2024/01/27 04:01:04;;;;;;;;;;;;;;;;;;4968271;28;19913;-60
2024/01/27 04:03:29;;;;;;;;;;;;;;;;;;4967362;28;19958;-60
2024/01/27 04:05:55;;;;;;;;;;;;;;;;;;4967110;28;20001;-60
2024/01/27 04:08:20;;;;;;;;;;;;;;;;;;4947935;28;20037;-60
2024/01/27 04:10:45;;;;;;;;;;;;;;;;;;4934768;28;20033;-60
2024/01/27 04:13:10;;;;;;;;;;;;;;;;;;4948431;29;19950;-60
2024/01/27 04:15:39;;;;;;;;;;;;;;;;;;4948212;28;19984;-61
2024/01/27 04:18:05;;;;;;;;;;;;;;;;;;4948142;28;19920;-60
2024/01/27 04:20:30;;;;;;;;;;;;;;;;;;4948429;28;19982;-61
2024/01/27 04:22:56;;;;;;;;;;;;;;;;;;4948008;28;19922;-61
2024/01/27 04:25:21;;;;;;;;;;;;;;;;;;4929997;29;20017;-61
2024/01/27 04:27:46;;;;;;;;;;;;;;;;;;4929098;29;19915;-60
2024/01/27 04:30:12;;;;;;;;;;;;;;;;;;4928310;29;19919;-60
2024/01/27 04:32:38;;;;;;;;;;;;;;;;;;4928259;29;19915;-60
2024/01/27 04:35:04;;;;;;;;;;;;;;;;;;4929050;29;19929;-60
2024/01/27 04:37:29;;;;;;;;;;;;;;;;;;4928196;29;19911;-60
2024/01/27 04:39:54;;;;;;;;;;;;;;;;;;4933119;29;19914;-60
2024/01/27 04:42:20;;;;;;;;;;;;;;;;;;4928238;29;20431;-60
2024/01/27 04:44:45;;;;;;;;;;;;;;;;;;4928560;29;20305;-60
2024/01/27 04:47:10;;;;;;;;;;;;;;;;;;4928170;29;19919;-60
2024/01/27 04:49:35;;;;;;;;;;;;;;;;;;4945092;28;19930;-60
2024/01/27 04:52:01;;;;;;;;;;;;;;;;;;4930034;29;19956;-60
2024/01/27 04:54:26;;;;;;;;;;;;;;;;;;4936324;28;20392;-60
2024/01/27 04:56:51;;;;;;;;;;;;;;;;;;4928408;29;19950;-60
2024/01/27 04:59:16;;;;;;;;;;;;;;;;;;4938225;28;19914;-60
2024/01/27 05:01:45;;;;;;;;;;;;;;;;;;4966642;28;19924;-60
2024/01/27 05:04:10;;;;;;;;;;;;;;;;;;4966209;28;20435;-60
2024/01/27 05:06:36;;;;;;;;;;;;;;;;;;4960222;28;19933;-60
2024/01/27 05:09:01;;;;;;;;;;;;;;;;;;4946276;28;20016;-60
2024/01/27 05:11:33;;;;;;;;;;;;;;;;;;4941277;28;19933;-60
2024/01/27 05:14:02;;;;;;;;;;;;;;;;;;4934490;28;19929;-60
2024/01/27 05:16:27;;;;;;;;;;;;;;;;;;4927534;29;19969;-60
2024/01/27 05:18:53;;;;;;;;;;;;;;;;;;4928475;29;19915;-60
2024/01/27 05:21:18;;;;;;;;;;;;;;;;;;4927952;29;19919;-60
2024/01/27 05:23:43;;;;;;;;;;;;;;;;;;4927151;29;20014;-59
2024/01/27 05:26:10;;;;;;;;;;;;;;;;;;4941233;28;19918;-60
2024/01/27 05:28:36;;;;;;;;;;;;;;;;;;4947011;28;19914;-60
2024/01/27 05:31:01;;;;;;;;;;;;;;;;;;4936093;29;20359;-60
2024/01/27 05:33:26;;;;;;;;;;;;;;;;;;4926915;29;19942;-60
2024/01/27 05:35:51;;;;;;;;;;;;;;;;;;4928065;29;19922;-60
2024/01/27 05:38:17;;;;;;;;;;;;;;;;;;4926532;29;20447;-61
2024/01/27 05:40:42;;;;;;;;;;;;;;;;;;4940675;28;20319;-61
2024/01/27 05:43:07;;;;;;;;;;;;;;;;;;4946387;29;19925;-61
2024/01/27 05:45:33;;;;;;;;;;;;;;;;;;4929132;29;19923;-60
2024/01/27 05:47:58;;;;;;;;;;;;;;;;;;4927667;29;20285;-61
2024/01/27 05:50:23;;;;;;;;;;;;;;;;;;4927410;29;19925;-61
2024/01/27 05:52:48;;;;;;;;;;;;;;;;;;4926425;29;19970;-61
2024/01/27 05:55:16;;;;;;;;;;;;;;;;;;4931121;29;19922;-60
2024/01/27 05:57:41;;;;;;;;;;;;;;;;;;4927517;29;19941;-60
2024/01/27 06:00:09;;;;;;;;;;;;;;;;;;4946518;28;19976;-60
2024/01/27 06:02:34;;;;;;;;;;;;;;;;;;4927042;29;19918;-61
2024/01/27 06:04:59;;;;;;;;;;;;;;;;;;4926509;29;19927;-61
2024/01/27 06:07:24;;;;;;;;;;;;;;;;;;4939851;28;20414;-61
2024/01/27 06:09:50;;;;;;;;;;;;;;;;;;4941067;29;19919;-60
2024/01/27 06:12:15;;;;;;;;;;;;;;;;;;4941656;28;19985;-60
2024/01/27 06:14:40;;;;;;;;;;;;;;;;;;4946049;28;19918;-61
2024/01/27 06:17:06;;;;;;;;;;;;;;;;;;4946201;28;19922;-60
2024/01/27 06:19:31;;;;;;;;;;;;;;;;;;4946398;28;19918;-61
2024/01/27 06:21:56;;;;;;;;;;;;;;;;;;4944915;29;20410;-60
2024/01/27 06:24:22;;;;;;;;;;;;;;;;;;4926375;29;19934;-61
2024/01/27 06:26:47;;;;;;;;;;;;;;;;;;4946342;28;20001;-61
2024/01/27 06:29:13;;;;;;;;;;;;;;;;;;4945555;29;19942;-61
2024/01/27 06:31:39;;;;;;;;;;;;;;;;;;4945584;28;20435;-60
2024/01/27 06:34:04;;;;;;;;;;;;;;;;;;4946475;29;19914;-60
2024/01/27 06:36:30;;;;;;;;;;;;;;;;;;4945510;28;20360;-60
2024/01/27 06:38:55;;;;;;;;;;;;;;;;;;4938767;29;19922;-60
2024/01/27 06:41:20;;;;;;;;;;;;;;;;;;4929955;28;19923;-60
2024/01/27 06:43:46;;;;;;;;;;;;;;;;;;4931626;29;19922;-61
2024/01/27 06:46:11;;;;;;;;;;;;;;;;;;4936325;29;19918;-61
2024/01/27 06:48:36;;;;;;;;;;;;;;;;;;4944915;28;19934;-61
2024/01/27 06:51:01;;;;;;;;;;;;;;;;;;4945598;28;19918;-61
2024/01/27 06:53:27;;;;;;;;;;;;;;;;;;4932897;28;20419;-60
2024/01/27 06:55:52;;;;;;;;;;;;;;;;;;4926640;29;19927;-61
2024/01/27 06:58:17;;;;;;;;;;;;;;;;;;4940420;28;19915;-60
2024/01/27 07:00:42;;;;;;;;;;;;;;;;;;4939386;28;19914;-61
2024/01/27 07:03:07;;;;;;;;;;;;;;;;;;4925451;28;19929;-60
2024/01/27 07:05:38;;;;;;;;;;;;;;;;;;4925097;29;20416;-60
2024/01/27 07:08:04;;;;;;;;;;;;;;;;;;4943391;28;19942;-61
2024/01/27 07:10:29;;;;;;;;;;;;;;;;;;4942523;28;20399;-61
2024/01/27 07:12:54;;;;;;;;;;;;;;;;;;4946013;29;19910;-61
2024/01/27 07:15:21;;;;;;;;;;;;;;;;;;4944636;28;19926;-60
2024/01/27 07:17:46;;;;;;;;;;;;;;;;;;4945387;28;19926;-62
2024/01/27 07:20:12;;;;;;;;;;;;;;;;;;4945249;28;19918;-61
2024/01/27 07:22:37;;;;;;;;;;;;;;;;;;4945020;28;19969;-61
2024/01/27 07:25:02;;;;;;;;;;;;;;;;;;4928868;29;19941;-61
2024/01/27 07:27:27;;;;;;;;;;;;;;;;;;4926544;29;19925;-60
2024/01/27 07:29:53;;;;;;;;;;;;;;;;;;4925540;29;19915;-60
2024/01/27 07:32:18;;;;;;;;;;;;;;;;;;4928376;29;19919;-59
2024/01/27 07:34:43;;;;;;;;;;;;;;;;;;4929524;29;19923;-61
2024/01/27 07:37:09;;;;;;;;;;;;;;;;;;4930081;29;19911;-61
2024/01/27 07:39:34;;;;;;;;;;;;;;;;;;4930090;29;20352;-61
2024/01/27 07:41:59;;;;;;;;;;;;;;;;;;4929001;29;19919;-60
2024/01/27 07:44:25;;;;;;;;;;;;;;;;;;4929734;29;20348;-61
2024/01/27 07:46:50;;;;;;;;;;;;;;;;;;4929181;29;20013;-61
2024/01/27 07:49:15;;;;;;;;;;;;;;;;;;4929548;29;19976;-61
2024/01/27 07:51:40;;;;;;;;;;;;;;;;;;4928339;29;19906;-61
2024/01/27 07:54:06;;;;;;;;;;;;;;;;;;4932578;29;19922;-60
2024/01/27 07:56:31;;;;;;;;;;;;;;;;;;4948111;28;19926;-61
2024/01/27 07:58:56;;;;;;;;;;;;;;;;;;4950666;28;20545;-60
2024/01/27 08:01:21;;;;;;;;;;;;;;;;;;4965290;28;20021;-60
2024/01/27 08:03:47;;;;;;;;;;;;;;;;;;4968477;28;19957;-61
2024/01/27 08:06:16;;;;;;;;;;;;;;;;;;4964396;28;19965;-61
2024/01/27 08:08:42;;;;;;;;;;;;;;;;;;4938822;28;19954;-61
2024/01/27 08:11:07;;;;;;;;;;;;;;;;;;4927152;29;19976;-61
2024/01/27 08:13:32;;;;;;;;;;;;;;;;;;4929703;29;19954;-61
2024/01/27 08:15:58;;;;;;;;;;;;;;;;;;4929590;29;19976;-61
2024/01/27 08:18:23;;;;;;;;;;;;;;;;;;4927998;29;19958;-61
2024/01/27 08:20:48;;;;;;;;;;;;;;;;;;4938462;29;19953;-61
2024/01/27 08:23:14;;;;;;;;;;;;;;;;;;4947086;28;19953;-61
2024/01/27 08:25:39;;;;;;;;;;;;;;;;;;4912559;29;20002;-61
2024/01/27 08:28:05;;;;;;;;;;;;;;;;;;4927807;29;20435;-62
2024/01/27 08:30:30;;;;;;;;;;;;;;;;;;4938637;29;20549;-61
2024/01/27 08:32:55;;;;;;;;;;;;;;;;;;4940848;28;19965;-61
2024/01/27 08:35:20;;;;;;;;;;;;;;;;;;4928273;29;20039;-61
2024/01/27 08:37:46;;;;;;;;;;;;;;;;;;4926930;29;19918;-61
2024/01/27 08:40:12;;;;;;;;;;;;;;;;;;4934424;29;19921;-61
2024/01/27 08:42:37;;;;;;;;;;;;;;;;;;4926793;29;20136;-60
2024/01/27 08:45:03;;;;;;;;;;;;;;;;;;4927636;29;19919;-60
2024/01/27 08:47:28;;;;;;;;;;;;;;;;;;4927981;29;19922;-61
2024/01/27 08:49:53;;;;;;;;;;;;;;;;;;4927559;29;20419;-61
2024/01/27 08:52:18;;;;;;;;;;;;;;;;;;4927616;29;19933;-60
2024/01/27 08:54:44;;;;;;;;;;;;;;;;;;4927142;28;19933;-60
2024/01/27 08:57:09;;;;;;;;;;;;;;;;;;4926887;29;20053;-60
2024/01/27 08:59:35;;;;;;;;;;;;;;;;;;4936839;28;20536;-61
2024/01/27 09:02:01;;;;;;;;;;;;;;;;;;4927352;29;19930;-60
2024/01/27 09:04:26;;;;;;;;;;;;;;;;;;4928001;29;19914;-61
2024/01/27 09:06:51;;;;;;;;;;;;;;;;;;4936041;29;19918;-61
2024/01/27 09:09:16;;;;;;;;;;;;;;;;;;4929060;28;19926;-61
2024/01/27 09:11:42;;;;;;;;;;;;;;;;;;4935025;29;20684;-60
2024/01/27 09:14:07;;;;;;;;;;;;;;;;;;4946565;28;20311;-60
2024/01/27 09:16:32;;;;;;;;;;;;;;;;;;4941203;28;20327;-60
2024/01/27 09:18:58;;;;;;;;;;;;;;;;;;4929985;28;19929;-60
2024/01/27 09:21:28;;;;;;;;;;;;;;;;;;4927355;28;19929;-60
2024/01/27 09:23:54;;;;;;;;;;;;;;;;;;4925289;28;19922;-60
2024/01/27 09:26:19;;;;;;;;;;;;;;;;;;4925586;29;19979;-61
2024/01/27 09:28:45;;;;;;;;;;;;;;;;;;4926390;29;19919;-61
2024/01/27 09:31:11;;;;;;;;;;;;;;;;;;4925232;29;19981;-60
2024/01/27 09:33:36;;;;;;;;;;;;;;;;;;4925730;29;20352;-61
2024/01/27 09:36:02;;;;;;;;;;;;;;;;;;4925160;29;19927;-61
2024/01/27 09:38:27;;;;;;;;;;;;;;;;;;4924886;29;19922;-61
2024/01/27 09:40:52;;;;;;;;;;;;;;;;;;4925647;28;20652;-61
2024/01/27 09:43:18;;;;;;;;;;;;;;;;;;4925206;29;19925;-61
2024/01/27 09:45:44;;;;;;;;;;;;;;;;;;4924879;29;19922;-61
2024/01/27 09:48:10;;;;;;;;;;;;;;;;;;4925764;29;19946;-61
2024/01/27 09:50:36;;;;;;;;;;;;;;;;;;4924578;29;19914;-61
2024/01/27 09:53:02;;;;;;;;;;;;;;;;;;4925263;29;20371;-58
2024/01/27 09:55:27;;;;;;;;;;;;;;;;;;4936505;28;19965;-61
2024/01/27 09:57:53;;;;;;;;;;;;;;;;;;4944868;29;19914;-61
2024/01/27 10:00:19;;;;;;;;;;;;;;;;;;4956865;28;19929;-61
2024/01/27 10:02:46;;;;;;;;;;;;;;;;;;4945853;28;19985;-61
2024/01/27 10:05:12;;;;;;;;;;;;;;;;;;4963973;28;19967;-61
2024/01/27 10:07:37;;;;;;;;;;;;;;;;;;4963081;28;19977;-61
2024/01/27 10:10:03;;;;;;;;;;;;;;;;;;4933711;28;19918;-61
2024/01/27 10:12:29;;;;;;;;;;;;;;;;;;4939164;29;19928;-61
2024/01/27 10:14:55;;;;;;;;;;;;;;;;;;4944016;28;20547;-61
2024/01/27 10:17:26;;;;;;;;;;;;;;;;;;4943797;28;19918;-61
2024/01/27 10:20:02;;;;;;;;;;;;;;;;;;4944358;28;19954;-61
2024/01/27 10:22:28;;;;;;;;;;;;;;;;;;4943756;28;19918;-61
2024/01/27 10:24:53;;;;;;;;;;;;;;;;;;4934587;29;19924;-60
2024/01/27 10:27:18;;;;;;;;;;;;;;;;;;4927187;29;20010;-61
2024/01/27 10:29:56;;;;;;;;;;;;;;;;;;4924597;29;19945;-61
2024/01/27 10:32:24;;;;;;;;;;;;;;;;;;4924545;29;20030;-61
2024/01/27 10:34:50;;;;;;;;;;;;;;;;;;4924283;29;19922;-62
2024/01/27 10:37:16;;;;;;;;;;;;;;;;;;4924198;29;20301;-61
2024/01/27 10:39:42;;;;;;;;;;;;;;;;;;4922432;29;19918;-61
2024/01/27 10:42:08;;;;;;;;;;;;;;;;;;4924003;29;19925;-61
2024/01/27 10:44:33;;;;;;;;;;;;;;;;;;4924620;29;19919;-60
2024/01/27 10:47:01;;;;;;;;;;;;;;;;;;4924370;29;19925;-61
2024/01/27 10:49:28;;;;;;;;;;;;;;;;;;4924180;29;19914;-60
2024/01/27 10:51:54;;;;;;;;;;;;;;;;;;4923890;29;20386;-61
2024/01/27 10:54:24;;;;;;;;;;;;;;;;;;4915624;29;19934;-61
2024/01/27 10:56:51;;;;;;;;;;;;;;;;;;4904562;29;19923;-60
2024/01/27 10:59:18;;;;;;;;;;;;;;;;;;4914362;29;20388;-61
2024/01/27 11:01:44;;;;;;;;;;;;;;;;;;4943221;28;19918;-60
2024/01/27 11:04:11;;;;;;;;;;;;;;;;;;4943397;29;19914;-61
2024/01/27 11:06:37;;;;;;;;;;;;;;;;;;4937440;28;20692;-61
2024/01/27 11:09:05;;;;;;;;;;;;;;;;;;4923963;29;19929;-61
2024/01/27 11:11:31;;;;;;;;;;;;;;;;;;4915315;29;19923;-60
2024/01/27 11:13:56;;;;;;;;;;;;;;;;;;4927895;29;19953;-61
2024/01/27 11:16:23;;;;;;;;;;;;;;;;;;4928099;29;20867;-60
2024/01/27 11:18:48;;;;;;;;;;;;;;;;;;4928174;29;20001;-61
2024/01/27 11:21:14;;;;;;;;;;;;;;;;;;4927317;29;20010;-60
2024/01/27 11:23:40;;;;;;;;;;;;;;;;;;4927216;29;19958;-61
2024/01/27 11:26:05;;;;;;;;;;;;;;;;;;4919137;29;19969;-61
2024/01/27 11:28:31;;;;;;;;;;;;;;;;;;4926803;29;19970;-60
2024/01/27 11:30:56;;;;;;;;;;;;;;;;;;4927414;29;19914;-60
2024/01/27 11:33:24;;;;;;;;;;;;;;;;;;4926537;29;19922;-61
2024/01/27 11:35:59;;;;;;;;;;;;;;;;;;4927428;29;19966;-61
2024/01/27 11:38:24;;;;;;;;;;;;;;;;;;4926699;29;19926;-61
2024/01/27 11:40:49;;;;;;;;;;;;;;;;;;4910298;29;19945;-61
2024/01/27 11:43:15;;;;;;;;;;;;;;;;;;4910294;29;19922;-61
2024/01/27 11:45:41;;;;;;;;;;;;;;;;;;4910441;29;20714;-61
2024/01/27 11:48:06;;;;;;;;;;;;;;;;;;4908968;29;19919;-61
2024/01/27 11:50:32;;;;;;;;;;;;;;;;;;4909845;29;19919;-61
2024/01/27 11:52:57;;;;;;;;;;;;;;;;;;4906080;29;19923;-62
2024/01/27 11:55:22;;;;;;;;;;;;;;;;;;4911010;29;19929;-61
2024/01/27 11:57:48;;;;;;;;;;;;;;;;;;4908809;29;19918;-61
2024/01/27 12:00:13;;;;;;;;;;;;;;;;;;4933431;29;19997;-61
2024/01/27 12:02:39;;;;;;;;;;;;;;;;;;4945827;28;19925;-62
2024/01/27 12:05:05;;;;;;;;;;;;;;;;;;4945963;28;19930;-61
2024/01/27 12:07:31;;;;;;;;;;;;;;;;;;4932227;29;19921;-61
2024/01/27 12:09:56;;;;;;;;;;;;;;;;;;4913243;29;20393;-62
2024/01/27 12:12:21;;;;;;;;;;;;;;;;;;4920402;29;20040;-61
2024/01/27 12:14:47;;;;;;;;;;;;;;;;;;4926100;29;19934;-61
2024/01/27 12:17:12;;;;;;;;;;;;;;;;;;4926437;29;19926;-61
2024/01/27 12:19:38;;;;;;;;;;;;;;;;;;4925920;29;19955;-62
2024/01/27 12:22:03;;;;;;;;;;;;;;;;;;4926674;29;19922;-61
2024/01/27 12:24:29;;;;;;;;;;;;;;;;;;4915884;29;20010;-61
2024/01/27 12:26:56;;;;;;;;;;;;;;;;;;4907599;29;19946;-61
2024/01/27 12:29:22;;;;;;;;;;;;;;;;;;4907118;29;19919;-61
2024/01/27 12:31:47;;;;;;;;;;;;;;;;;;4906112;29;20628;-61
2024/01/27 12:34:13;;;;;;;;;;;;;;;;;;4907010;29;19914;-61
2024/01/27 12:36:44;;;;;;;;;;;;;;;;;;4907823;29;20018;-61
2024/01/27 12:39:10;;;;;;;;;;;;;;;;;;4905427;29;20030;-61
2024/01/27 12:41:35;;;;;;;;;;;;;;;;;;4906753;29;20021;-61
2024/01/27 12:44:00;;;;;;;;;;;;;;;;;;4906718;29;19951;-61
2024/01/27 12:46:26;;;;;;;;;;;;;;;;;;4909634;29;19926;-61
2024/01/27 12:48:51;;;;;;;;;;;;;;;;;;4907440;29;20010;-64
2024/01/27 12:51:17;;;;;;;;;;;;;;;;;;4906795;29;19941;-61
2024/01/27 12:53:44;;;;;;;;;;;;;;;;;;4908868;29;19958;-61
2024/01/27 12:56:12;;;;;;;;;;;;;;;;;;4907593;29;19937;-61
2024/01/27 12:58:38;;;;;;;;;;;;;;;;;;4906837;29;19995;-61
2024/01/27 13:01:04;;;;;;;;;;;;;;;;;;4945771;29;20336;-61
2024/01/27 13:03:29;;;;;;;;;;;;;;;;;;4944953;28;20308;-61
2024/01/27 13:05:55;;;;;;;;;;;;;;;;;;4943952;28;19922;-61
2024/01/27 13:08:21;;;;;;;;;;;;;;;;;;4918228;29;19927;-61
2024/01/27 13:10:47;;;;;;;;;;;;;;;;;;4906834;29;19930;-62
2024/01/27 13:13:12;;;;;;;;;;;;;;;;;;4926218;29;20350;-61
2024/01/27 13:15:37;;;;;;;;;;;;;;;;;;4926039;29;19926;-61
2024/01/27 13:18:03;;;;;;;;;;;;;;;;;;4925585;29;19930;-62
2024/01/27 13:20:28;;;;;;;;;;;;;;;;;;4935507;28;20444;-61
2024/01/27 13:22:53;;;;;;;;;;;;;;;;;;4944682;28;19929;-61
2024/01/27 13:25:19;;;;;;;;;;;;;;;;;;4933520;28;19925;-61
2024/01/27 13:27:45;;;;;;;;;;;;;;;;;;4944327;28;19918;-61
2024/01/27 13:30:11;;;;;;;;;;;;;;;;;;4940193;28;19922;-61
2024/01/27 13:32:36;;;;;;;;;;;;;;;;;;4943740;28;19918;-62
2024/01/27 13:35:02;;;;;;;;;;;;;;;;;;4944310;28;19926;-61
2024/01/27 13:37:27;;;;;;;;;;;;;;;;;;4943967;28;19911;-62
2024/01/27 13:39:52;;;;;;;;;;;;;;;;;;4937473;28;19937;-61
2024/01/27 13:42:18;;;;;;;;;;;;;;;;;;4943685;28;20429;-61
2024/01/27 13:44:43;;;;;;;;;;;;;;;;;;4943779;28;19929;-61
2024/01/27 13:47:09;;;;;;;;;;;;;;;;;;4943265;28;20025;-61
2024/01/27 13:49:34;;;;;;;;;;;;;;;;;;4943896;29;19918;-61
2024/01/27 13:52:00;;;;;;;;;;;;;;;;;;4943477;29;19918;-62
2024/01/27 13:54:25;;;;;;;;;;;;;;;;;;4935458;28;20415;-61
2024/01/27 13:56:50;;;;;;;;;;;;;;;;;;4924579;29;19926;-61
2024/01/27 13:59:16;;;;;;;;;;;;;;;;;;4934361;28;20870;-61
2024/01/27 14:01:41;;;;;;;;;;;;;;;;;;4963294;28;19918;-61
2024/01/27 14:04:08;;;;;;;;;;;;;;;;;;4963519;28;19918;-62
2024/01/27 14:06:33;;;;;;;;;;;;;;;;;;4962319;28;20028;-61
2024/01/27 14:08:58;;;;;;;;;;;;;;;;;;4955245;28;20016;-61
2024/01/27 14:11:24;;;;;;;;;;;;;;;;;;4949155;28;20300;-61
2024/01/27 14:13:49;;;;;;;;;;;;;;;;;;4963139;28;19918;-62
2024/01/27 14:16:14;;;;;;;;;;;;;;;;;;4960597;28;20625;-62
2024/01/27 14:18:40;;;;;;;;;;;;;;;;;;4937491;28;19915;-62
2024/01/27 14:21:05;;;;;;;;;;;;;;;;;;4934527;28;20056;-62
2024/01/27 14:23:31;;;;;;;;;;;;;;;;;;4938262;28;19965;-61
2024/01/27 14:25:56;;;;;;;;;;;;;;;;;;4927388;28;19950;-61
2024/01/27 14:28:22;;;;;;;;;;;;;;;;;;4925159;28;20282;-61
2024/01/27 14:30:47;;;;;;;;;;;;;;;;;;4944434;29;19965;-62
2024/01/27 14:33:13;;;;;;;;;;;;;;;;;;4943712;29;20557;-62
2024/01/27 14:35:39;;;;;;;;;;;;;;;;;;4943937;29;19948;-61
2024/01/27 14:38:04;;;;;;;;;;;;;;;;;;4932687;28;20018;-61
2024/01/27 14:40:32;;;;;;;;;;;;;;;;;;4935909;28;19922;-61
2024/01/27 14:42:57;;;;;;;;;;;;;;;;;;4943845;28;19919;-62
2024/01/27 14:45:22;;;;;;;;;;;;;;;;;;4943437;28;19918;-61
2024/01/27 14:47:47;;;;;;;;;;;;;;;;;;4943829;29;19933;-62
2024/01/27 14:50:13;;;;;;;;;;;;;;;;;;4944198;29;20705;-62
2024/01/27 14:52:38;;;;;;;;;;;;;;;;;;4925854;28;19922;-62
2024/01/27 14:55:04;;;;;;;;;;;;;;;;;;4944344;28;19918;-61
2024/01/27 14:57:29;;;;;;;;;;;;;;;;;;4931907;28;19930;-61
2024/01/27 14:59:54;;;;;;;;;;;;;;;;;;4944871;28;19921;-61
2024/01/27 15:02:20;;;;;;;;;;;;;;;;;;4962965;28;20318;-61
2024/01/27 15:04:45;;;;;;;;;;;;;;;;;;4962698;28;19937;-61
2024/01/27 15:07:15;;;;;;;;;;;;;;;;;;4963612;28;19914;-62
2024/01/27 15:09:40;;;;;;;;;;;;;;;;;;4962697;28;20396;-61
2024/01/27 15:12:06;;;;;;;;;;;;;;;;;;4951364;28;19950;-61
2024/01/27 15:14:31;;;;;;;;;;;;;;;;;;4941908;29;20347;-61
2024/01/27 15:16:57;;;;;;;;;;;;;;;;;;4943200;28;20547;-61
2024/01/27 15:19:23;;;;;;;;;;;;;;;;;;4944184;28;19914;-61
2024/01/27 15:21:48;;;;;;;;;;;;;;;;;;4944587;28;19914;-61
2024/01/27 15:24:13;;;;;;;;;;;;;;;;;;4943423;28;20296;-61
2024/01/27 15:26:39;;;;;;;;;;;;;;;;;;4943392;28;19922;-61
2024/01/27 15:29:04;;;;;;;;;;;;;;;;;;4943303;28;19926;-61
2024/01/27 15:31:29;;;;;;;;;;;;;;;;;;4942374;28;20281;-61
2024/01/27 15:33:54;;;;;;;;;;;;;;;;;;4943430;29;19937;-61
2024/01/27 15:36:20;;;;;;;;;;;;;;;;;;4942569;28;19922;-61
2024/01/27 15:38:45;;;;;;;;;;;;;;;;;;4954502;28;20020;-62
2024/01/27 15:41:10;;;;;;;;;;;;;;;;;;4949458;28;20305;-62
2024/01/27 15:43:36;;;;;;;;;;;;;;;;;;4930413;28;19930;-61
2024/01/27 15:46:04;;;;;;;;;;;;;;;;;;4917275;29;20073;-61
2024/01/27 15:48:30;;;;;;;;;;;;;;;;;;4943094;29;19924;-61
2024/01/27 15:50:55;;;;;;;;;;;;;;;;;;4943342;29;20443;-61
2024/01/27 15:53:21;;;;;;;;;;;;;;;;;;4945576;28;19914;-61
2024/01/27 15:55:46;;;;;;;;;;;;;;;;;;4946558;28;19929;-61
2024/01/27 15:58:11;;;;;;;;;;;;;;;;;;4930251;29;19934;-61
2024/01/27 16:00:36;;;;;;;;;;;;;;;;;;4933448;28;20402;-62
2024/01/27 16:03:02;;;;;;;;;;;;;;;;;;4945192;29;20758;-61
2024/01/27 16:05:27;;;;;;;;;;;;;;;;;;4946933;28;19934;-61
2024/01/27 16:07:52;;;;;;;;;;;;;;;;;;4948902;28;19922;-62
2024/01/27 16:10:17;;;;;;;;;;;;;;;;;;4932371;28;20675;-61
2024/01/27 16:12:43;;;;;;;;;;;;;;;;;;4936984;28;19972;-61
2024/01/27 16:15:09;;;;;;;;;;;;;;;;;;4926627;29;19938;-62
2024/01/27 16:17:34;;;;;;;;;;;;;;;;;;4927419;29;20030;-62
2024/01/27 16:19:59;;;;;;;;;;;;;;;;;;4926891;29;19919;-62
2024/01/27 16:22:24;;;;;;;;;;;;;;;;;;4926509;29;19973;-62
2024/01/27 16:24:50;;;;;;;;;;;;;;;;;;4927980;29;20009;-61
2024/01/27 16:27:16;;;;;;;;;;;;;;;;;;4927039;29;19918;-61
2024/01/27 16:29:41;;;;;;;;;;;;;;;;;;4926922;29;20407;-61
2024/01/27 16:32:06;;;;;;;;;;;;;;;;;;4926343;29;20412;-61
2024/01/27 16:34:32;;;;;;;;;;;;;;;;;;4926639;29;19923;-61